createdAt,value
2023-01-22T00:01:26.618Z,52.71
2023-01-22T00:06:28.692Z,52.77
2023-01-22T00:11:30.987Z,51.63
2023-01-22T00:16:33.086Z,51.05
2023-01-22T00:21:35.283Z,50.86
2023-01-22T00:26:37.836Z,50.51
2023-01-22T00:31:40.245Z,50.79
2023-01-22T00:36:42.772Z,51.07
2023-01-22T00:41:44.816Z,50.96
2023-01-22T00:46:47.168Z,50.27
2023-01-22T00:51:49.274Z,49.99
2023-01-22T00:56:51.275Z,50.69
2023-01-22T01:01:53.442Z,51.10
2023-01-22T01:06:55.697Z,52.09
2023-01-22T01:11:57.737Z,52.66
2023-01-22T01:16:59.828Z,52.66
2023-01-22T01:22:01.907Z,52.30
2023-01-22T01:27:05.298Z,51.44
2023-01-22T01:32:07.383Z,51.06
2023-01-22T01:37:09.459Z,50.64
2023-01-22T01:42:11.508Z,50.16
2023-01-22T01:47:32.523Z,50.79
2023-01-22T01:52:34.836Z,51.42
2023-01-22T01:57:37.704Z,51.02
2023-01-22T02:02:40.801Z,50.73
2023-01-22T02:07:43.971Z,50.09
2023-01-22T02:12:46.194Z,49.85
2023-01-22T02:17:48.709Z,49.89
2023-01-22T02:22:51.120Z,50.80
2023-01-22T02:27:53.759Z,51.29
2023-01-22T02:32:57.772Z,50.98
2023-01-22T02:38:00.314Z,50.13
2023-01-22T02:43:03.015Z,50.51
2023-01-22T02:48:05.374Z,50.52
2023-01-22T02:53:09.861Z,51.04
2023-01-22T02:58:12.605Z,50.93
2023-01-22T03:03:17.414Z,50.68
2023-01-22T03:08:20.493Z,50.20
2023-01-22T03:13:40.763Z,49.58
2023-01-22T03:19:01.286Z,49.10
2023-01-22T03:24:03.532Z,49.63
2023-01-22T03:29:06.224Z,49.68
2023-01-22T03:34:09.139Z,50.62
2023-01-22T03:39:11.998Z,49.95
2023-01-22T03:44:14.539Z,50.24
2023-01-22T03:49:18.251Z,49.52
2023-01-22T03:54:20.496Z,49.06
2023-01-22T03:59:23.728Z,49.13
2023-01-22T04:04:26.093Z,49.30
2023-01-22T04:09:28.467Z,49.70
2023-01-22T04:14:32.181Z,49.98
2023-01-22T04:19:37.271Z,50.17
2023-01-22T04:24:54.308Z,49.79
2023-01-22T04:29:56.489Z,49.88
2023-01-22T04:34:59.749Z,49.20
2023-01-22T04:40:22.248Z,50.15
2023-01-22T04:45:25.083Z,49.82
2023-01-22T04:50:30.724Z,50.50
2023-01-22T04:55:33.070Z,49.65
2023-01-22T05:00:39.051Z,49.90
2023-01-22T05:05:41.453Z,49.48
2023-01-22T05:10:43.583Z,49.17
2023-01-22T05:15:52.239Z,49.42
2023-01-22T05:20:54.883Z,49.69
2023-01-22T05:25:59.340Z,49.89
2023-01-22T05:31:25.724Z,49.66
2023-01-22T05:36:36.250Z,49.91
2023-01-22T05:41:44.244Z,49.67
2023-01-22T05:46:47.381Z,49.12
2023-01-22T05:52:00.204Z,49.48
2023-01-22T05:57:03.371Z,49.55
2023-01-22T06:02:05.560Z,50.39
2023-01-22T06:07:10.652Z,49.08
2023-01-22T06:12:13.225Z,48.78
2023-01-22T06:17:15.439Z,48.73
2023-01-22T06:22:28.169Z,47.89
2023-01-22T06:27:34.468Z,48.75
2023-01-22T06:32:38.636Z,49.05
2023-01-22T06:37:40.975Z,49.68
2023-01-22T06:42:43.463Z,49.38
2023-01-22T06:47:46.831Z,49.75
2023-01-22T06:52:50.028Z,49.86
2023-01-22T06:57:55.619Z,49.65
2023-01-22T07:02:57.988Z,49.53
2023-01-22T07:08:00.245Z,49.84
2023-01-22T07:13:04.606Z,49.80
2023-01-22T07:18:06.714Z,49.76
2023-01-22T07:23:09.878Z,49.81
2023-01-22T07:28:15.274Z,50.16
2023-01-22T07:33:19.298Z,49.47
2023-01-22T07:38:21.211Z,49.14
2023-01-22T07:43:23.341Z,49.11
2023-01-22T07:48:25.593Z,49.55
2023-01-22T07:53:28.473Z,50.02
2023-01-22T07:58:30.614Z,50.32
2023-01-22T08:03:34.216Z,50.31
2023-01-22T08:08:36.324Z,50.16
2023-01-22T08:13:38.451Z,49.68
2023-01-22T08:18:40.633Z,49.15
2023-01-22T08:23:46.178Z,48.71
2023-01-22T08:28:49.729Z,49.30
2023-01-22T08:33:51.856Z,49.87
2023-01-22T08:38:54.167Z,48.96
2023-01-22T08:43:56.237Z,49.91
2023-01-22T08:48:58.528Z,50.66
2023-01-22T08:54:00.716Z,50.80
2023-01-22T08:59:06.723Z,50.55
2023-01-22T09:04:10.622Z,50.25
2023-01-22T09:09:13.129Z,50.10
2023-01-22T09:14:15.451Z,49.74
2023-01-22T09:19:17.630Z,49.83
2023-01-22T09:24:19.843Z,49.76
2023-01-22T09:29:22.065Z,50.73
2023-01-22T09:34:24.192Z,50.24
2023-01-22T09:39:26.251Z,49.86
2023-01-22T09:44:39.333Z,49.98
2023-01-22T09:50:13.595Z,49.76
2023-01-22T09:55:19.519Z,49.84
2023-01-22T10:00:30.424Z,50.27
2023-01-22T10:05:47.107Z,49.79
2023-01-22T10:10:51.085Z,50.11
2023-01-22T10:15:55.666Z,49.74
2023-01-22T10:21:01.183Z,49.63
2023-01-22T10:26:25.449Z,48.63
2023-01-22T10:31:28.981Z,48.94
2023-01-22T10:36:32.132Z,49.28
2023-01-22T10:41:34.341Z,49.99
2023-01-22T10:46:36.503Z,50.33
2023-01-22T10:51:41.646Z,49.48
2023-01-22T10:56:44.708Z,48.96
2023-01-22T11:01:52.905Z,48.18
2023-01-22T11:07:14.536Z,48.73
2023-01-22T11:12:19.762Z,49.63
2023-01-22T11:17:31.382Z,49.94
2023-01-22T11:22:40.758Z,50.45
2023-01-22T11:28:08.192Z,49.58
2023-01-22T11:33:31.375Z,49.40
2023-01-22T11:38:42.277Z,49.24
2023-01-22T11:43:59.982Z,49.60
2023-01-22T11:49:23.609Z,48.60
2023-01-22T11:54:43.905Z,49.53
2023-01-22T12:00:10.944Z,48.68
2023-01-22T12:05:22.431Z,47.21
2023-01-22T12:11:08.639Z,46.43
2023-01-22T12:16:59.848Z,47.20
2023-01-22T12:22:28.054Z,47.27
2023-01-22T12:27:39.217Z,48.18
2023-01-22T12:32:45.857Z,48.56
2023-01-22T12:37:55.522Z,47.70
2023-01-22T12:43:06.708Z,47.15
2023-01-22T12:48:18.925Z,47.40
2023-01-22T12:53:34.449Z,47.14
2023-01-22T12:58:39.316Z,46.34
2023-01-22T13:03:42.303Z,46.44
2023-01-22T13:08:46.063Z,46.97
2023-01-22T13:13:56.748Z,45.82
2023-01-22T13:19:20.672Z,46.11
2023-01-22T13:24:22.761Z,47.00
2023-01-22T13:29:33.028Z,46.60
2023-01-22T13:34:35.354Z,47.18
2023-01-22T13:39:37.442Z,47.37
2023-01-22T13:44:42.692Z,47.33
2023-01-22T13:49:44.972Z,48.15
2023-01-22T13:55:01.488Z,46.93
2023-01-22T14:00:04.751Z,46.29
2023-01-22T14:05:21.924Z,47.95
2023-01-22T14:10:25.640Z,47.97
2023-01-22T14:15:27.895Z,48.05
2023-01-22T14:20:30.079Z,48.03
2023-01-22T14:25:32.252Z,47.42
2023-01-22T14:30:34.577Z,46.74
2023-01-22T14:35:36.634Z,47.21
2023-01-22T14:40:38.734Z,47.03
2023-01-22T14:45:42.077Z,47.99
2023-01-22T14:50:44.479Z,47.32
2023-01-22T14:55:46.793Z,47.19
2023-01-22T15:00:48.866Z,46.58
2023-01-22T15:05:52.425Z,47.62
2023-01-22T15:10:54.643Z,47.63
2023-01-22T15:15:56.828Z,47.57
2023-01-22T15:20:58.999Z,47.42
2023-01-22T15:26:25.040Z,47.45
2023-01-22T15:31:27.621Z,46.99
2023-01-22T15:36:30.682Z,46.69
2023-01-22T15:41:34.984Z,47.55
2023-01-22T15:46:39.591Z,47.35
2023-01-22T15:51:42.288Z,47.11
2023-01-22T15:56:44.667Z,46.87
2023-01-22T16:01:47.014Z,47.33
2023-01-22T16:06:49.366Z,47.16
2023-01-22T16:11:52.672Z,47.37
2023-01-22T16:16:54.873Z,48.06
2023-01-22T16:21:56.951Z,47.93
2023-01-22T16:26:59.569Z,47.81
2023-01-22T16:32:01.781Z,47.69
2023-01-22T16:37:03.887Z,46.08
2023-01-22T16:42:06.051Z,45.43
2023-01-22T16:47:08.311Z,46.00
2023-01-22T16:52:22.015Z,45.55
2023-01-22T16:57:24.782Z,45.37
2023-01-22T17:02:26.889Z,45.76
2023-01-22T17:07:33.913Z,45.66
2023-01-22T17:12:36.589Z,45.82
2023-01-22T17:17:38.789Z,46.14
2023-01-22T17:22:40.959Z,45.80
2023-01-22T17:27:43.093Z,46.20
2023-01-22T17:32:47.570Z,46.94
2023-01-22T17:37:49.695Z,47.01
2023-01-22T17:42:52.261Z,47.51
2023-01-22T17:47:54.474Z,47.33
2023-01-22T17:52:57.264Z,47.44
2023-01-22T17:58:00.156Z,47.86
2023-01-22T18:03:02.288Z,48.38
2023-01-22T18:08:04.524Z,48.35
2023-01-22T18:13:06.689Z,47.83
2023-01-22T18:18:09.128Z,48.43
2023-01-22T18:23:15.391Z,47.73
2023-01-22T18:28:18.561Z,48.62
2023-01-22T18:33:21.478Z,47.26
2023-01-22T18:38:28.652Z,47.56
2023-01-22T18:43:30.754Z,47.63
2023-01-22T18:48:32.931Z,47.84
2023-01-22T18:53:35.798Z,48.09
2023-01-22T18:58:38.832Z,48.92
2023-01-22T19:03:43.015Z,48.46
2023-01-22T19:08:48.482Z,47.61
2023-01-22T19:13:54.429Z,47.49
2023-01-22T19:18:58.925Z,47.66
2023-01-22T19:24:02.219Z,47.81
2023-01-22T19:29:15.675Z,47.60
2023-01-22T19:34:23.779Z,46.60
2023-01-22T19:39:26.303Z,47.28
2023-01-22T19:44:29.743Z,46.72
2023-01-22T19:49:32.080Z,47.09
2023-01-22T19:54:34.240Z,45.72
2023-01-22T19:59:36.259Z,45.44
2023-01-22T20:04:38.802Z,46.38
2023-01-22T20:09:40.944Z,46.84
2023-01-22T20:14:44.059Z,47.07
2023-01-22T20:19:46.157Z,47.16
2023-01-22T20:24:48.370Z,47.76
2023-01-22T20:29:50.650Z,48.04
2023-01-22T20:34:52.746Z,48.14
2023-01-22T20:39:54.980Z,47.95
2023-01-22T20:44:58.613Z,48.28
2023-01-22T20:50:00.876Z,48.02
2023-01-22T20:55:03.571Z,48.41
2023-01-22T21:00:06.487Z,48.01
2023-01-22T21:05:09.026Z,47.91
2023-01-22T21:10:11.619Z,48.02
2023-01-22T21:15:13.777Z,46.83
2023-01-22T21:20:15.926Z,47.36
2023-01-22T21:25:18.081Z,47.02
2023-01-22T21:30:20.500Z,47.29
2023-01-22T21:35:22.996Z,47.17
2023-01-22T21:40:25.165Z,47.61
2023-01-22T21:45:45.860Z,48.02
2023-01-22T21:50:48.002Z,47.90
2023-01-22T21:55:53.753Z,48.08
2023-01-22T22:00:55.867Z,47.84
2023-01-22T22:06:02.086Z,48.01
2023-01-22T22:11:05.002Z,47.99
2023-01-22T22:16:08.920Z,48.43
2023-01-22T22:21:13.255Z,48.41
2023-01-22T22:26:15.488Z,48.12
2023-01-22T22:31:18.484Z,48.84
2023-01-22T22:36:23.398Z,48.70
2023-01-22T22:41:28.266Z,48.67
2023-01-22T22:46:36.079Z,48.85
2023-01-22T22:51:40.599Z,47.87
2023-01-22T22:56:47.175Z,47.94
2023-01-22T23:01:49.932Z,48.23
2023-01-22T23:06:52.251Z,48.89
2023-01-22T23:11:58.589Z,48.47
2023-01-22T23:17:00.708Z,48.06
2023-01-22T23:22:02.918Z,48.52
2023-01-22T23:27:05.209Z,48.39
2023-01-22T23:32:07.356Z,49.06
2023-01-22T23:37:09.446Z,48.76
2023-01-22T23:42:11.545Z,48.14
2023-01-22T23:47:13.689Z,48.31
2023-01-22T23:52:15.887Z,48.29
2023-01-22T23:57:18.108Z,48.34
